Time;durP1;ratioP1;P1;durP2;ratioP2;P2;SDS_P1;SDS_P2;PMS_P1;PMS_P2;Temp;Humidity;BMP_temperature;BMP_pressure;BME280_temperature;BME280_humidity;BME280_pressure;Samples;Min_cycle;Max_cycle;Signal;HPM_P1;HPM_P2
2022/01/13 04:42:13;;;;;;;63.80;29.73;;;;;;;-6.04;93.31;102431.97;6543696;26;20127;-78
2022/01/13 04:45:16;;;;;;;64.80;27.17;;;;;;;-6.08;93.26;102427.69;6651957;26;243427;-79
2022/01/13 04:48:18;;;;;;;67.82;31.42;;;;;;;-6.12;93.56;102428.59;6660797;26;33643;-77
2022/01/13 04:51:21;;;;;;;66.78;29.87;;;;;;;-6.07;93.45;102449.53;6661408;26;33373;-80
2022/01/13 04:54:24;;;;;;;66.30;30.02;;;;;;;-6.04;93.72;102454.72;6661228;26;33540;-79
2022/01/13 04:57:27;;;;;;;54.38;26.17;;;;;;;-6.04;94.15;102459.97;6662566;26;34213;-79
2022/01/13 05:00:30;;;;;;;65.18;30.23;;;;;;;-6.07;92.74;102453.00;6663141;26;33288;-79
2022/01/13 05:03:33;;;;;;;64.60;28.35;;;;;;;-6.11;93.14;102458.28;6661680;26;34765;-79
2022/01/13 05:06:36;;;;;;;64.05;28.55;;;;;;;-6.15;93.43;102465.34;6663013;26;33543;-79
2022/01/13 05:09:39;;;;;;;60.75;29.77;;;;;;;-6.16;93.36;102461.84;6670859;26;33304;-79
2022/01/13 05:12:44;;;;;;;60.03;27.40;;;;;;;-6.16;93.20;102463.63;6674634;26;33960;-79
2022/01/13 05:15:49;;;;;;;64.95;28.42;;;;;;;-6.13;93.54;102467.94;6667802;26;33936;-80
2022/01/13 05:25:00;;;;;;;67.95;29.12;;;;;;;-6.12;93.76;102488.88;6662411;26;33097;-83
2022/01/13 05:28:03;;;;;;;64.82;28.35;;;;;;;-6.10;93.80;102500.22;6661915;26;34613;-83
2022/01/13 05:31:06;;;;;;;63.03;29.23;;;;;;;-6.00;93.74;102500.97;6662418;26;34064;-79
2022/01/13 05:34:09;;;;;;;63.95;28.55;;;;;;;-5.83;92.96;102504.22;6664945;26;34170;-79
2022/01/13 05:37:32;;;;;;;60.00;27.75;;;;;;;-5.88;93.12;102506.03;6668807;26;33864;-80
2022/01/13 05:40:36;;;;;;;57.03;27.73;;;;;;;-5.86;93.40;102504.25;6671340;26;33420;-80
2022/01/13 05:43:39;;;;;;;62.35;26.33;;;;;;;-5.81;93.95;102496.34;6672424;26;33956;-81
2022/01/13 05:46:42;;;;;;;57.17;27.83;;;;;;;-5.70;93.81;102495.31;6672387;26;34616;-81
2022/01/13 05:49:45;;;;;;;61.90;28.35;;;;;;;-5.55;92.96;102493.34;6673942;26;34095;-81
2022/01/13 05:52:48;;;;;;;62.08;27.40;;;;;;;-5.54;92.68;102490.69;6674720;26;33889;-80
2022/01/13 05:55:51;;;;;;;63.47;28.40;;;;;;;-5.21;91.38;102479.69;6673021;26;33883;-80
2022/01/13 05:58:54;;;;;;;59.38;27.55;;;;;;;-5.13;90.92;102476.03;6676032;26;33914;-80
2022/01/13 06:01:58;;;;;;;63.67;27.58;;;;;;;-5.17;91.56;102487.50;6668566;26;33940;-80
2022/01/13 06:05:02;;;;;;;63.47;28.65;;;;;;;-5.05;91.47;102484.66;6665739;26;33842;-80
2022/01/13 06:08:04;;;;;;;62.92;26.90;;;;;;;-5.05;91.24;102475.94;6665903;26;33124;-80
2022/01/13 06:11:07;;;;;;;60.38;28.67;;;;;;;-4.87;89.57;102474.72;6664882;26;34049;-80
2022/01/13 06:14:10;;;;;;;62.33;29.37;;;;;;;-4.83;88.97;102477.25;6670739;26;33864;-80
2022/01/13 06:17:13;;;;;;;60.15;27.15;;;;;;;-4.82;88.77;102479.00;6664684;26;33770;-81
2022/01/13 06:20:17;;;;;;;57.38;27.92;;;;;;;-4.72;87.75;102469.19;6664032;26;34296;-80
2022/01/13 06:23:20;;;;;;;60.70;25.60;;;;;;;-4.79;88.62;102460.56;6667689;26;34801;-81
2022/01/13 06:26:22;;;;;;;63.85;28.70;;;;;;;-4.84;89.01;102459.78;6662864;26;33493;-81
2022/01/13 06:29:26;;;;;;;56.05;24.92;;;;;;;-4.91;90.05;102463.41;6661954;26;33200;-81
2022/01/13 06:32:28;;;;;;;60.38;27.35;;;;;;;-5.01;91.27;102474.97;6661300;26;33714;-81
2022/01/13 06:35:31;;;;;;;60.45;25.88;;;;;;;-5.01;91.45;102473.19;6665719;26;34679;-81
2022/01/13 06:38:34;;;;;;;48.70;25.12;;;;;;;-4.88;91.06;102480.87;6666021;26;33576;-81
2022/01/13 06:41:39;;;;;;;57.30;25.55;;;;;;;-4.79;90.60;102478.97;6662106;26;34147;-81
2022/01/13 06:44:42;;;;;;;51.92;24.27;;;;;;;-4.89;91.10;102474.75;6662637;26;33429;-81
2022/01/13 06:47:44;;;;;;;56.17;25.40;;;;;;;-4.90;90.85;102469.53;6663736;26;33450;-80
2022/01/13 06:50:47;;;;;;;57.60;27.30;;;;;;;-4.86;91.04;102472.06;6671248;26;33980;-80
2022/01/13 06:53:50;;;;;;;57.78;26.35;;;;;;;-4.95;91.20;102464.34;6664853;26;34478;-80
2022/01/13 06:56:53;;;;;;;62.53;27.02;;;;;;;-4.84;90.93;102470.28;6662507;26;34081;-80
2022/01/13 06:59:56;;;;;;;56.05;26.60;;;;;;;-4.90;91.46;102482.66;6662035;26;33456;-81
2022/01/13 07:03:02;;;;;;;58.20;26.75;;;;;;;-4.88;91.37;102457.25;6666627;26;33598;-81
2022/01/13 07:06:05;;;;;;;59.05;25.35;;;;;;;-4.69;90.67;102478.78;6670309;26;34978;-79
2022/01/13 07:09:12;;;;;;;62.75;29.02;;;;;;;-4.63;90.48;102476.91;6674681;26;34673;-80
2022/01/13 07:12:15;;;;;;;63.05;28.12;;;;;;;-4.73;90.58;102471.88;6662029;26;34332;-81
2022/01/13 07:15:18;;;;;;;61.72;29.73;;;;;;;-4.66;90.87;102478.72;6662146;26;34716;-81
2022/01/13 07:18:21;;;;;;;62.13;28.38;;;;;;;-4.61;90.61;102487.41;6662227;26;33491;-80
2022/01/13 07:21:26;;;;;;;61.80;27.50;;;;;;;-4.60;90.55;102486.50;6662144;26;33809;-80
2022/01/13 07:24:29;;;;;;;55.97;26.17;;;;;;;-4.49;89.70;102484.53;6662154;26;33309;-84
2022/01/13 07:27:32;;;;;;;59.20;26.98;;;;;;;-4.46;89.36;102476.59;6661953;26;33206;-84
2022/01/13 07:30:35;;;;;;;61.63;27.02;;;;;;;-4.39;89.45;102487.84;6661971;26;33695;-84
2022/01/13 07:33:38;;;;;;;61.63;27.67;;;;;;;-4.17;88.16;102491.78;6661797;26;33399;-84
2022/01/13 07:36:41;;;;;;;59.78;28.27;;;;;;;-4.12;87.44;102497.81;6661740;26;34340;-81
2022/01/13 07:39:44;;;;;;;63.17;29.40;;;;;;;-4.01;86.80;102492.31;6661629;26;33964;-79
2022/01/13 07:42:48;;;;;;;55.85;26.67;;;;;;;-3.86;86.29;102493.78;6661530;26;33382;-79
2022/01/13 07:45:52;;;;;;;60.03;29.25;;;;;;;-3.71;85.29;102503.09;6661683;26;34573;-80
2022/01/13 07:48:56;;;;;;;60.22;27.58;;;;;;;-3.66;85.14;102504.75;6661930;26;34182;-79
2022/01/13 07:51:59;;;;;;;63.17;28.10;;;;;;;-3.35;84.79;102506.66;6661987;26;34097;-82
2022/01/13 07:55:03;;;;;;;60.22;28.12;;;;;;;-2.73;82.56;102503.34;6663176;26;34957;-79
2022/01/13 07:58:06;;;;;;;57.95;27.52;;;;;;;-2.48;80.52;102506.22;6663166;26;33469;-79
2022/01/13 08:01:08;;;;;;;64.60;28.17;;;;;;;-2.43;79.31;102496.38;6661737;26;33198;-79
2022/01/13 08:04:12;;;;;;;60.65;29.70;;;;;;;-2.48;80.06;102498.31;6668198;26;33576;-80
2022/01/13 08:07:15;;;;;;;60.03;27.23;;;;;;;-2.68;80.78;102503.25;6662648;26;34185;-80
2022/01/13 08:10:18;;;;;;;60.12;27.83;;;;;;;-2.69;81.22;102504.13;6662746;26;33902;-81
2022/01/13 08:13:20;;;;;;;56.25;27.85;;;;;;;-2.81;82.09;102505.31;6661970;26;33851;-80
2022/01/13 08:16:31;;;;;;;63.83;28.35;;;;;;;-2.71;82.24;102509.47;6662456;26;33386;-80
2022/01/13 08:19:46;;;;;;;62.45;29.67;;;;;;;-2.46;80.66;102509.66;6663151;26;33316;-80
2022/01/13 08:22:50;;;;;;;60.35;28.67;;;;;;;-2.25;80.85;102513.50;6668048;26;33822;-80
2022/01/13 08:25:53;;;;;;;63.67;29.75;;;;;;;-1.77;78.00;102522.69;6671151;26;33656;-81
2022/01/13 08:28:55;;;;;;;62.45;30.17;;;;;;;-1.69;76.93;102504.84;6661918;26;34303;-81
2022/01/13 08:31:58;;;;;;;63.03;29.80;;;;;;;-1.71;77.83;102512.81;6662016;26;33247;-82
2022/01/13 08:35:01;;;;;;;65.72;29.25;;;;;;;-1.55;77.34;102513.22;6662265;26;34003;-81
2022/01/13 08:38:15;;;;;;;66.20;32.47;;;;;;;-1.43;77.09;102511.97;6662087;26;33708;-82
2022/01/13 08:41:18;;;;;;;63.28;30.42;;;;;;;-1.34;76.90;102505.53;6663612;26;34461;-82
2022/01/13 08:44:21;;;;;;;56.70;27.98;;;;;;;-1.23;77.37;102503.38;6663418;26;33194;-81
2022/01/13 08:47:24;;;;;;;61.80;30.77;;;;;;;-1.02;76.96;102501.84;6670048;26;33724;-83
2022/01/13 08:50:26;;;;;;;61.95;27.75;;;;;;;-0.88;77.86;102491.63;6667079;26;33492;-79
2022/01/13 08:53:30;;;;;;;50.78;25.37;;;;;;;-0.65;78.61;102490.84;6661986;26;33167;-79
2022/01/13 08:56:33;;;;;;;50.12;24.60;;;;;;;-0.51;79.50;102493.88;6663899;26;34274;-79
2022/01/13 08:59:36;;;;;;;48.40;26.02;;;;;;;-0.31;80.11;102492.31;6665483;26;34316;-80
2022/01/13 09:02:42;;;;;;;54.95;25.37;;;;;;;-0.16;80.06;102489.09;6667296;26;33369;-79
2022/01/13 09:05:46;;;;;;;52.40;25.20;;;;;;;-0.07;79.69;102494.03;6663987;26;34502;-81
2022/01/13 09:08:49;;;;;;;50.05;22.92;;;;;;;-0.02;79.98;102494.75;6661455;26;34088;-80
2022/01/13 09:11:52;;;;;;;57.80;25.17;;;;;;;0.12;79.46;102502.19;6663321;26;33891;-80
2022/01/13 09:15:01;;;;;;;49.10;24.83;;;;;;;0.28;79.21;102493.63;6663270;26;33599;-80
2022/01/13 09:18:11;;;;;;;49.47;23.58;;;;;;;0.41;79.01;102492.22;6674352;26;33938;-83
2022/01/13 09:21:16;;;;;;;52.27;22.60;;;;;;;0.49;78.67;102492.78;6664056;26;36859;-87
2022/01/13 09:24:21;;;;;;;46.67;21.70;;;;;;;0.90;77.74;102484.94;6661843;26;33622;-80
2022/01/13 09:27:24;;;;;;;47.25;21.08;;;;;;;1.15;76.91;102487.44;6662200;26;33846;-80
2022/01/13 09:30:27;;;;;;;45.08;22.27;;;;;;;1.27;76.65;102481.63;6662539;26;34314;-81
2022/01/13 09:33:30;;;;;;;47.20;22.15;;;;;;;1.28;77.16;102491.28;6661776;26;33325;-80
2022/01/13 09:36:33;;;;;;;45.63;21.95;;;;;;;1.22;77.09;102488.03;6661714;26;33747;-79
2022/01/13 09:39:36;;;;;;;43.70;21.87;;;;;;;1.04;77.58;102493.19;6662000;26;33788;-80
2022/01/13 09:42:41;;;;;;;46.42;22.73;;;;;;;0.93;78.09;102491.91;6661094;26;33139;-81
2022/01/13 09:45:44;;;;;;;51.13;21.40;;;;;;;1.03;78.71;102488.84;6662900;26;33481;-80
2022/01/13 09:48:47;;;;;;;46.17;22.13;;;;;;;1.12;78.03;102483.13;6662752;26;33618;-80
2022/01/13 09:51:50;;;;;;;45.95;20.17;;;;;;;1.25;77.64;102475.50;6667708;26;34695;-80
2022/01/13 09:54:52;;;;;;;42.47;19.55;;;;;;;1.33;77.61;102475.19;6662901;26;33774;-80
2022/01/13 09:58:00;;;;;;;41.08;20.95;;;;;;;1.33;77.87;102460.13;6662809;26;34621;-80
2022/01/13 10:01:04;;;;;;;43.83;21.33;;;;;;;1.41;77.46;102462.44;6662387;26;33928;-79
2022/01/13 10:04:09;;;;;;;41.80;19.75;;;;;;;1.64;77.32;102458.78;6662114;26;33941;-79
2022/01/13 10:07:13;;;;;;;38.53;17.85;;;;;;;1.81;76.38;102450.91;6662590;26;33631;-80
2022/01/13 10:10:24;;;;;;;41.60;19.23;;;;;;;2.08;74.89;102465.62;6662725;26;34707;-79
2022/01/13 10:13:40;;;;;;;41.13;19.80;;;;;;;1.96;75.48;102452.00;6662426;26;33628;-80
2022/01/13 10:16:48;;;;;;;40.00;19.58;;;;;;;2.08;75.44;102444.38;6662126;26;33336;-80
2022/01/13 10:19:55;;;;;;;38.72;18.65;;;;;;;2.19;75.33;102444.72;6661880;26;33340;-80
2022/01/13 10:23:20;;;;;;;39.20;20.23;;;;;;;2.49;73.91;102437.94;6662119;26;33943;-80
2022/01/13 10:26:22;;;;;;;42.20;18.55;;;;;;;2.57;73.52;102424.25;6661846;26;33762;-80
2022/01/13 10:29:38;;;;;;;39.88;18.98;;;;;;;2.68;72.72;102421.94;6662762;26;35026;-79
2022/01/13 10:32:42;;;;;;;35.25;18.20;;;;;;;2.51;73.21;102435.19;6662265;26;33831;-80
2022/01/13 10:35:46;;;;;;;35.88;19.25;;;;;;;2.49;72.83;102415.81;6662151;26;34142;-83
2022/01/13 10:38:51;;;;;;;40.03;19.45;;;;;;;2.48;72.96;102414.09;6662691;26;33199;-82
2022/01/13 10:42:14;;;;;;;37.83;17.40;;;;;;;2.49;73.23;102427.31;6664679;26;33957;-80
2022/01/13 10:45:31;;;;;;;36.22;18.52;;;;;;;2.30;73.90;102418.50;6666068;26;34248;-81
2022/01/13 10:48:36;;;;;;;35.95;18.40;;;;;;;2.02;75.06;102429.59;6672556;26;33734;-80
2022/01/13 10:51:39;;;;;;;39.83;18.33;;;;;;;2.10;75.20;102429.22;6662737;26;33710;-80
2022/01/13 10:54:43;;;;;;;36.17;16.90;;;;;;;2.12;75.10;102419.38;6662740;26;35004;-81
2022/01/13 10:57:46;;;;;;;33.78;17.02;;;;;;;2.14;75.04;102414.88;6662488;26;33622;-80
2022/01/13 11:00:52;;;;;;;36.22;17.62;;;;;;;2.18;75.40;102411.12;6661929;26;34183;-80
2022/01/13 11:03:54;;;;;;;39.58;17.62;;;;;;;2.38;74.49;102410.16;6662020;26;33284;-81
2022/01/13 11:07:22;;;;;;;32.95;16.27;;;;;;;2.26;74.90;102401.84;6661355;26;33874;-81
2022/01/13 11:10:25;;;;;;;33.70;16.70;;;;;;;2.40;74.52;102402.97;6661406;26;35004;-81
2022/01/13 11:13:35;;;;;;;37.38;17.45;;;;;;;2.27;74.87;102398.25;6662081;26;34330;-81
2022/01/13 11:16:38;;;;;;;33.27;17.03;;;;;;;2.27;75.03;102394.72;6662083;26;33331;-81
2022/01/13 11:19:47;;;;;;;35.80;17.75;;;;;;;2.24;75.29;102389.56;6662624;26;33507;-81
2022/01/13 11:22:52;;;;;;;35.80;18.10;;;;;;;2.43;74.91;102381.56;6662876;26;33647;-80
2022/01/13 11:25:57;;;;;;;35.97;18.20;;;;;;;2.48;74.55;102387.50;6662267;26;33677;-81
2022/01/13 11:29:00;;;;;;;34.15;17.23;;;;;;;2.54;74.43;102373.03;6662555;26;33641;-80
2022/01/13 11:32:06;;;;;;;38.58;19.35;;;;;;;2.61;74.09;102379.78;6662310;26;34247;-80
2022/01/13 11:35:25;;;;;;;32.08;16.08;;;;;;;2.75;73.73;102369.31;6662787;26;34324;-79
2022/01/13 11:38:29;;;;;;;32.20;15.73;;;;;;;2.94;72.85;102374.53;6666179;26;33531;-80
2022/01/13 11:41:32;;;;;;;35.53;15.52;;;;;;;3.12;71.65;102378.03;6669190;26;34345;-84
2022/01/13 11:44:36;;;;;;;32.33;15.82;;;;;;;3.16;71.85;102382.28;6662513;26;34108;-84
2022/01/13 11:47:38;;;;;;;30.98;14.43;;;;;;;3.35;71.05;102387.47;6663634;26;34052;-84
2022/01/13 11:50:47;;;;;;;31.52;15.40;;;;;;;3.59;70.24;102372.84;6666389;26;33878;-84
2022/01/13 11:53:59;;;;;;;29.00;14.25;;;;;;;3.85;69.14;102378.53;6673570;26;34144;-80
2022/01/13 11:57:22;;;;;;;30.35;14.27;;;;;;;3.78;69.31;102382.50;6675560;26;33553;-80
2022/01/13 12:00:28;;;;;;;27.10;14.23;;;;;;;3.85;69.09;102368.75;6671601;26;34398;-80
2022/01/13 12:03:34;;;;;;;28.83;13.25;;;;;;;4.40;67.15;102371.91;6661120;26;34247;-80
2022/01/13 12:06:46;;;;;;;25.02;14.15;;;;;;;4.33;67.13;102368.75;6662008;26;34071;-80
2022/01/13 12:09:49;;;;;;;28.12;14.38;;;;;;;4.49;66.58;102379.37;6662362;26;33916;-80
2022/01/13 12:12:52;;;;;;;29.60;14.63;;;;;;;5.05;64.59;102374.28;6662367;26;33651;-80
2022/01/13 12:15:56;;;;;;;29.37;14.38;;;;;;;5.41;62.86;102371.16;6663157;26;34537;-80
2022/01/13 12:19:11;;;;;;;31.27;14.10;;;;;;;5.04;63.96;102369.91;6665319;26;34014;-80
2022/01/13 12:22:40;;;;;;;26.80;14.82;;;;;;;4.90;64.72;102357.38;6667288;26;33617;-80
2022/01/13 12:25:44;;;;;;;26.05;12.98;;;;;;;5.29;63.18;102361.22;6664188;26;33800;-80
2022/01/13 12:29:10;;;;;;;24.60;13.75;;;;;;;5.79;61.52;102351.84;6664798;26;33275;-80
2022/01/13 12:32:14;;;;;;;24.73;13.90;;;;;;;5.81;60.24;102334.75;6664000;26;33408;-80
2022/01/13 12:35:39;;;;;;;28.50;13.90;;;;;;;6.49;58.78;102336.59;6663212;26;33656;-80
2022/01/13 12:38:58;;;;;;;26.48;14.87;;;;;;;6.89;57.01;102322.28;6662237;26;33941;-81
2022/01/13 12:42:03;;;;;;;28.63;15.60;;;;;;;6.67;57.27;102301.47;6661724;26;33753;-80
2022/01/13 12:48:33;;;;;;;29.33;15.85;;;;;;;5.91;59.54;102310.97;6661027;26;33791;-80
2022/01/13 12:51:36;;;;;;;28.15;16.10;;;;;;;5.63;61.00;102320.75;6662006;26;33512;-81
2022/01/13 12:54:45;;;;;;;30.73;16.50;;;;;;;6.20;58.75;102343.88;6662268;26;33591;-81
2022/01/13 12:57:51;;;;;;;30.95;16.75;;;;;;;5.22;61.99;102350.94;6662148;26;34385;-81
2022/01/13 13:01:04;;;;;;;33.22;17.35;;;;;;;4.72;64.07;102359.34;6663856;26;33396;-80
2022/01/13 13:04:12;;;;;;;31.52;17.10;;;;;;;4.77;64.28;102357.25;6662238;26;33804;-80
2022/01/13 13:07:15;;;;;;;30.23;17.40;;;;;;;4.41;65.42;102355.78;6662414;26;34416;-80
2022/01/13 13:10:18;;;;;;;32.15;17.42;;;;;;;4.14;66.72;102338.72;6664079;26;33253;-80
2022/01/13 13:13:21;;;;;;;31.15;17.50;;;;;;;3.92;67.41;102323.97;6669998;26;34578;-79
2022/01/13 13:16:24;;;;;;;29.42;16.00;;;;;;;3.82;68.06;102328.09;6662397;26;33554;-79
2022/01/13 13:19:27;;;;;;;32.78;17.60;;;;;;;3.32;70.01;102321.09;6661343;26;34379;-80
2022/01/13 13:22:44;;;;;;;29.83;17.05;;;;;;;3.29;70.58;102310.59;6661625;26;33881;-79
2022/01/13 13:25:54;;;;;;;30.90;17.42;;;;;;;3.26;70.77;102310.78;6661239;26;33577;-79
2022/01/13 13:28:58;;;;;;;27.58;15.00;;;;;;;2.90;72.59;102303.81;6661594;26;33994;-79
2022/01/13 13:32:01;;;;;;;34.88;17.40;;;;;;;2.81;73.09;102299.84;6665906;26;34704;-80
2022/01/13 13:35:12;;;;;;;30.67;15.98;;;;;;;2.70;73.63;102294.22;6669666;26;34361;-79
2022/01/13 13:38:15;;;;;;;36.28;16.87;;;;;;;2.57;74.32;102290.47;6644231;26;33740;-83
2022/01/13 13:41:20;;;;;;;34.97;16.65;;;;;;;2.58;74.55;102302.84;6663578;26;33972;-83
2022/01/13 13:44:43;;;;;;;29.60;16.05;;;;;;;2.60;74.56;102299.12;6664126;26;34072;-80
2022/01/13 13:47:56;;;;;;;36.13;17.58;;;;;;;2.65;74.48;102301.56;6667932;26;33257;-79
2022/01/13 13:51:00;;;;;;;31.60;16.65;;;;;;;2.72;74.36;102303.84;6663619;26;34125;-80
2022/01/13 13:54:16;;;;;;;31.27;16.75;;;;;;;2.73;74.11;102297.56;6663735;26;34385;-80
2022/01/13 13:57:20;;;;;;;33.28;16.75;;;;;;;2.50;74.98;102306.72;6663144;26;34555;-79
2022/01/13 14:00:26;;;;;;;34.65;16.92;;;;;;;2.46;75.65;102320.28;6662154;26;34375;-80
2022/01/13 14:03:37;;;;;;;36.63;16.92;;;;;;;2.29;76.49;102309.62;6661781;26;33999;-80
2022/01/13 14:06:42;;;;;;;30.98;15.85;;;;;;;2.15;77.38;102310.31;6662215;26;33512;-80
2022/01/13 14:09:53;;;;;;;32.15;17.12;;;;;;;2.22;78.00;102317.91;6662444;26;33689;-80
2022/01/13 14:13:03;;;;;;;36.53;17.37;;;;;;;2.20;77.69;102305.63;6661836;26;33804;-79
2022/01/13 14:16:06;;;;;;;30.95;16.37;;;;;;;2.00;78.63;102302.16;6661974;26;34433;-80
2022/01/13 14:19:12;;;;;;;32.80;17.12;;;;;;;1.88;79.49;102294.78;6661216;26;33655;-79
2022/01/13 14:22:21;;;;;;;29.95;16.40;;;;;;;1.83;79.67;102296.78;6661561;26;33269;-80
2022/01/13 14:25:29;;;;;;;36.67;17.37;;;;;;;1.69;80.24;102288.63;6662713;26;33647;-80
2022/01/13 14:28:32;;;;;;;33.40;16.92;;;;;;;1.62;80.82;102281.91;6661319;26;34300;-80
2022/01/13 14:31:38;;;;;;;34.60;16.50;;;;;;;1.65;81.02;102279.09;6661984;26;33515;-80
2022/01/13 14:34:44;;;;;;;34.42;17.17;;;;;;;1.62;81.76;102287.22;6663120;26;33787;-80
2022/01/13 14:37:55;;;;;;;36.75;17.67;;;;;;;1.65;81.36;102274.66;6680539;26;34309;-80
2022/01/13 14:40:58;;;;;;;33.78;16.85;;;;;;;1.56;81.89;102283.91;6680036;26;34969;-84
2022/01/13 14:44:14;;;;;;;35.03;17.55;;;;;;;1.57;81.79;102285.62;6663082;26;33856;-85
2022/01/13 14:47:17;;;;;;;32.78;16.40;;;;;;;1.61;81.64;102282.81;6662143;26;33843;-80
2022/01/13 14:50:20;;;;;;;33.17;16.30;;;;;;;1.62;81.74;102287.22;6662419;26;34248;-80
2022/01/13 14:53:23;;;;;;;31.12;16.37;;;;;;;1.64;81.79;102287.97;6662591;26;33943;-80
2022/01/13 14:56:27;;;;;;;33.17;16.35;;;;;;;1.67;81.84;102280.75;6661761;26;33848;-81
2022/01/13 14:59:30;;;;;;;36.92;17.30;;;;;;;1.68;81.79;102277.16;6662695;26;33294;-81
2022/01/13 15:02:33;;;;;;;29.80;16.12;;;;;;;1.70;81.76;102263.81;6662335;26;33362;-80
2022/01/13 15:05:36;;;;;;;33.95;16.92;;;;;;;1.71;81.71;102258.41;6662881;26;34392;-80
2022/01/13 15:08:40;;;;;;;33.03;16.50;;;;;;;1.62;82.08;102253.56;6663377;26;33585;-80
2022/01/13 15:11:43;;;;;;;30.25;15.82;;;;;;;1.62;82.13;102242.09;6664593;26;33613;-81
2022/01/13 15:14:46;;;;;;;36.55;17.15;;;;;;;1.53;82.58;102246.91;6674851;26;33455;-80
2022/01/13 15:17:49;;;;;;;33.17;17.27;;;;;;;1.53;82.60;102243.37;6676684;26;33557;-80
2022/01/13 15:20:52;;;;;;;29.75;15.80;;;;;;;1.60;82.56;102234.19;6663201;26;33713;-80
2022/01/13 15:23:56;;;;;;;30.73;16.00;;;;;;;1.59;82.92;102249.25;6662389;26;34352;-80
2022/01/13 15:26:59;;;;;;;30.85;15.45;;;;;;;1.66;82.52;102238.34;6662617;26;33570;-80
2022/01/13 15:30:03;;;;;;;29.50;15.43;;;;;;;1.71;82.32;102228.34;6667125;26;33954;-81
2022/01/13 15:33:08;;;;;;;34.38;16.33;;;;;;;1.73;82.31;102231.81;6664870;26;34535;-81
2022/01/13 15:36:11;;;;;;;30.00;15.40;;;;;;;1.80;82.12;102228.75;6667413;26;33261;-81
2022/01/13 15:39:19;;;;;;;27.85;15.10;;;;;;;1.84;82.03;102242.75;6669808;26;33955;-81
2022/01/13 15:42:23;;;;;;;31.83;16.65;;;;;;;1.87;81.90;102233.75;6665379;26;34473;-82
2022/01/13 15:45:25;;;;;;;32.50;15.43;;;;;;;1.88;81.82;102239.00;6667479;26;34603;-81
2022/01/13 15:48:29;;;;;;;31.00;16.62;;;;;;;1.92;81.33;102229.94;6661793;26;34525;-81
2022/01/13 15:51:31;;;;;;;32.70;15.88;;;;;;;1.93;81.25;102223.72;6663376;26;33367;-81
2022/01/13 15:54:34;;;;;;;31.48;16.48;;;;;;;1.85;81.74;102223.22;6664005;26;34295;-80
2022/01/13 15:57:38;;;;;;;32.25;15.45;;;;;;;1.90;81.79;102221.22;6665957;26;33128;-80
2022/01/13 16:00:42;;;;;;;30.27;16.67;;;;;;;1.89;82.25;102200.88;6666784;26;34547;-80
2022/01/13 16:03:44;;;;;;;30.05;16.05;;;;;;;1.96;81.86;102206.75;6662310;26;34090;-79
2022/01/13 16:06:47;;;;;;;32.45;16.95;;;;;;;1.95;82.13;102197.91;6662121;26;34435;-80
2022/01/13 16:09:50;;;;;;;31.02;15.73;;;;;;;2.01;81.94;102194.09;6663077;26;33214;-81
2022/01/13 16:12:53;;;;;;;31.45;15.32;;;;;;;2.03;81.90;102195.75;6662783;26;34323;-80
2022/01/13 16:15:56;;;;;;;31.23;16.80;;;;;;;2.15;82.32;102191.59;6663027;26;33768;-80
2022/01/13 16:18:59;;;;;;;33.40;16.10;;;;;;;2.00;81.99;102176.44;6662977;26;33154;-80
2022/01/13 16:22:02;;;;;;;31.20;15.68;;;;;;;2.11;82.06;102178.56;6662613;26;34284;-80
2022/01/13 16:25:06;;;;;;;34.83;16.58;;;;;;;2.03;82.45;102166.50;6662797;26;33727;-80
2022/01/13 16:28:13;;;;;;;33.80;16.42;;;;;;;2.07;81.80;102167.22;6662541;26;33675;-80
2022/01/13 16:31:16;;;;;;;30.90;16.20;;;;;;;2.07;81.95;102174.31;6661790;26;33552;-80
2022/01/13 16:34:19;;;;;;;30.65;15.13;;;;;;;2.06;82.22;102177.94;6661582;26;33718;-80
2022/01/13 16:37:23;;;;;;;30.02;16.70;;;;;;;2.11;81.73;102176.75;6661584;26;33586;-80
2022/01/13 16:40:30;;;;;;;31.67;16.00;;;;;;;2.01;82.20;102173.69;6661634;26;33851;-83
2022/01/13 16:43:32;;;;;;;29.90;16.23;;;;;;;1.97;82.67;102173.94;6662136;26;34149;-84
2022/01/13 16:46:36;;;;;;;33.28;15.50;;;;;;;1.94;82.36;102168.78;6662281;26;33239;-83
2022/01/13 16:49:40;;;;;;;29.75;15.27;;;;;;;1.80;82.67;102174.78;6662229;26;34728;-81
2022/01/13 16:52:44;;;;;;;33.38;17.67;;;;;;;1.73;82.70;102168.09;6661787;26;34351;-81
2022/01/13 16:55:49;;;;;;;32.10;17.10;;;;;;;1.63;83.11;102172.13;6661494;26;34216;-80
2022/01/13 16:58:54;;;;;;;30.83;16.23;;;;;;;1.58;83.31;102159.94;6662384;26;33731;-80
2022/01/13 17:01:57;;;;;;;34.72;17.02;;;;;;;1.58;83.23;102157.28;6662176;26;33368;-80
2022/01/13 17:05:00;;;;;;;28.33;14.73;;;;;;;1.61;83.29;102163.34;6661885;26;33612;-79
2022/01/13 17:08:06;;;;;;;31.15;15.35;;;;;;;1.69;82.78;102153.22;6663696;26;34085;-80
